Terminal Aerodrome Forecast
Issued by NWS

Home | Current Version | Previous Version | Text Only | Print | Product List | Glossary On
Versions: 1 2 3 4 5 6 7 8 9 10 11 12 13 14 15 16 17 18 19
694
FTUS46 KLOX 272359
TAFPRB
TAF
KPRB 272359Z 2800/2824 33010KT P6SM SCT040 BKN080
      TEMPO 2800/2803 SCT025 BKN040
     FM280800 VRB03KT P6SM SCT040
     FM281300 00000KT 6SM BR SCT001
     FM281700 34005KT P6SM SKC
     FM282200 08007KT P6SM SKC=

USA.gov is the U.S. government's official web portal to all federal, state and local government web resources and services.